Liverpool, New York
Current Conditions -  °F | °C
As of 10:54 PM on Saturday 25 Oct 2014 (Local Time) from KSYR Reporting Station
Broken Clouds Broken Clouds  
Wind Chill: 57°   Ceiling: 8000
Heat Index: 57°   Visibility: 10mi
Dew Point: 48°   Wind: 10mph
Humidity: 72%   Direction: 220°SW
Pressure: 29.54"   Gusts: NA
Location:  43.11°N, 76.21°W
Report Text: KSYR 260254Z 22009KT 10SM BKN080 14/09 A2954 RMK AO2 SLP000 DSNT LTG NE AND NW CB DSNT NE AND NW T01390089 58017
Loading
Personal Weather Stations






























Interactive Weather Map
Tropical Storm Tracking
New forecast layout! Learn more

10-Day Weather Forecast

Advertisements
Track Severe Weather on mobile